createdAt,value
2022-09-28T00:04:54.869Z,13.73
2022-09-28T00:10:16.671Z,12.93
2022-09-28T00:15:38.484Z,14.95
2022-09-28T00:21:19.914Z,14.43
2022-09-28T00:26:53.664Z,14.88
2022-09-28T00:32:18.830Z,14.02
2022-09-28T00:37:40.890Z,9.90
2022-09-28T00:43:17.769Z,8.23
2022-09-28T00:48:46.197Z,7.68
2022-09-28T00:54:09.540Z,5.13
2022-09-28T00:59:33.591Z,3.92
2022-09-28T01:04:57.957Z,2.75
2022-09-28T01:10:19.764Z,2.22
2022-09-28T01:16:20.459Z,1.83
2022-09-28T01:22:24.312Z,1.90
2022-09-28T01:27:57.443Z,2.15
2022-09-28T01:33:24.880Z,1.80
2022-09-28T01:38:50.976Z,2.00
2022-09-28T01:44:17.441Z,1.90
2022-09-28T01:49:44.792Z,1.95
2022-09-28T01:55:11.973Z,1.55
2022-09-28T02:00:38.303Z,1.55
2022-09-28T02:06:07.647Z,1.00
2022-09-28T02:11:29.548Z,1.52
2022-09-28T02:16:53.602Z,1.10
2022-09-28T02:22:21.877Z,1.10
2022-09-28T02:28:13.605Z,1.60
2022-09-28T02:33:41.827Z,1.08
2022-09-28T02:39:03.709Z,1.10
2022-09-28T02:44:33.607Z,1.20
2022-09-28T02:50:26.293Z,1.08
2022-09-28T02:56:22.884Z,0.95
2022-09-28T03:01:50.513Z,0.80
2022-09-28T03:07:30.495Z,1.35
2022-09-28T03:12:54.632Z,1.30
2022-09-28T03:18:16.855Z,1.40
2022-09-28T03:23:39.369Z,1.80
2022-09-28T03:29:01.148Z,1.70
2022-09-28T03:34:23.001Z,2.17
2022-09-28T03:39:44.775Z,2.47
2022-09-28T03:45:07.200Z,2.92
2022-09-28T03:50:28.989Z,2.95
2022-09-28T03:55:51.441Z,3.63
2022-09-28T04:01:17.251Z,3.65
2022-09-28T04:06:39.692Z,4.00
2022-09-28T04:12:04.194Z,3.72
2022-09-28T04:17:26.436Z,5.10
2022-09-28T04:22:48.238Z,5.97
2022-09-28T04:28:09.994Z,5.95
2022-09-28T04:33:31.788Z,8.98
2022-09-28T04:38:53.783Z,10.35
2022-09-28T04:44:15.614Z,10.60
2022-09-28T04:49:37.453Z,11.23
2022-09-28T04:54:59.196Z,11.52
2022-09-28T05:00:20.939Z,11.25
2022-09-28T05:05:46.965Z,11.07
2022-09-28T05:11:12.290Z,10.90
2022-09-28T05:16:34.136Z,10.25
2022-09-28T05:21:56.261Z,10.77
2022-09-28T05:27:18.021Z,11.02
2022-09-28T05:32:41.205Z,11.23
2022-09-28T05:38:04.311Z,11.73
2022-09-28T05:43:26.173Z,10.35
2022-09-28T05:48:47.965Z,10.77
2022-09-28T05:54:09.913Z,10.07
2022-09-28T05:59:31.651Z,11.20
2022-09-28T06:04:53.426Z,10.23
2022-09-28T06:10:15.171Z,11.50
2022-09-28T06:15:37.173Z,11.35
2022-09-28T06:20:59.131Z,9.80
2022-09-28T06:26:20.905Z,10.65
2022-09-28T06:31:42.685Z,10.60
2022-09-28T06:37:04.588Z,10.10
2022-09-28T06:42:26.334Z,10.73
2022-09-28T06:47:53.089Z,11.15
2022-09-28T06:58:36.889Z,10.43
2022-09-28T07:03:58.632Z,10.88
2022-09-28T07:09:31.803Z,8.55
2022-09-28T07:14:54.739Z,9.35
2022-09-28T07:20:19.352Z,9.35
2022-09-28T07:25:41.688Z,8.90
2022-09-28T07:31:03.620Z,7.70
2022-09-28T07:36:25.533Z,8.70
2022-09-28T07:41:47.343Z,7.65
2022-09-28T07:47:09.199Z,8.32
2022-09-28T07:52:30.983Z,6.70
2022-09-28T07:57:56.857Z,7.10
2022-09-28T08:03:20.682Z,6.40
2022-09-28T08:08:43.904Z,4.90
2022-09-28T08:14:05.730Z,5.97
2022-09-28T08:19:27.941Z,5.43
2022-09-28T08:24:49.844Z,4.75
2022-09-28T08:30:11.827Z,4.70
2022-09-28T08:35:33.759Z,4.25
2022-09-28T08:41:15.483Z,4.13
2022-09-28T08:46:45.429Z,4.20
2022-09-28T08:52:30.215Z,4.22
2022-09-28T08:58:03.346Z,3.95
2022-09-28T09:03:33.927Z,3.85
2022-09-28T09:09:10.853Z,3.47
2022-09-28T09:14:47.716Z,4.22
2022-09-28T09:20:37.584Z,4.07
2022-09-28T09:26:12.282Z,3.85
2022-09-28T09:32:31.433Z,3.45
2022-09-28T09:38:05.937Z,3.72
2022-09-28T09:43:56.054Z,3.97
2022-09-28T09:49:30.810Z,3.50
2022-09-28T09:55:01.937Z,2.63
2022-09-28T10:00:23.882Z,3.45
2022-09-28T10:05:52.493Z,2.25
2022-09-28T10:11:19.017Z,2.08
2022-09-28T10:22:06.041Z,2.53
2022-09-28T10:27:34.325Z,2.05
2022-09-28T10:32:56.100Z,1.88
2022-09-28T10:38:19.116Z,2.00
2022-09-28T10:44:00.501Z,2.17
2022-09-28T10:49:24.847Z,2.17
2022-09-28T10:54:53.353Z,2.00
2022-09-28T11:00:37.606Z,2.17
2022-09-28T11:06:03.061Z,2.05
2022-09-28T11:11:25.088Z,2.38
2022-09-28T11:16:47.010Z,2.20
2022-09-28T11:22:35.749Z,2.00
2022-09-28T11:28:01.463Z,2.10
2022-09-28T11:33:41.110Z,3.40
2022-09-28T11:39:28.525Z,2.53
2022-09-28T11:44:59.110Z,2.65
2022-09-28T11:50:45.880Z,2.10
2022-09-28T11:56:35.929Z,2.80
2022-09-28T12:02:11.070Z,2.40
2022-09-28T12:07:42.484Z,2.05
2022-09-28T12:13:12.129Z,2.10
2022-09-28T12:18:47.197Z,1.45
2022-09-28T12:24:29.309Z,1.50
2022-09-28T12:30:02.127Z,1.17
2022-09-28T12:35:57.914Z,1.25
2022-09-28T12:41:55.654Z,1.10
2022-09-28T12:47:46.345Z,1.30
2022-09-28T12:53:31.430Z,1.35
2022-09-28T12:59:25.173Z,1.40
2022-09-28T13:05:18.755Z,1.15
2022-09-28T13:10:41.337Z,1.80
2022-09-28T13:16:24.737Z,1.90
2022-09-28T13:22:04.680Z,1.30
2022-09-28T13:27:34.611Z,1.50
2022-09-28T13:32:59.057Z,1.63
2022-09-28T13:38:20.890Z,1.58
2022-09-28T13:44:04.566Z,1.38
2022-09-28T13:49:51.267Z,1.23
2022-09-28T13:55:30.445Z,1.20
2022-09-28T14:01:13.094Z,1.67
2022-09-28T14:06:34.955Z,1.10
2022-09-28T14:12:48.471Z,1.35
2022-09-28T14:18:10.244Z,1.27
2022-09-28T14:23:42.004Z,1.27
2022-09-28T14:29:24.574Z,1.27
2022-09-28T14:34:59.704Z,1.20
2022-09-28T14:40:25.754Z,1.33
2022-09-28T14:45:47.738Z,1.67
2022-09-28T14:51:24.999Z,1.33
2022-09-28T14:57:05.957Z,1.45
2022-09-28T15:02:33.182Z,1.10
2022-09-28T15:07:55.546Z,1.40
2022-09-28T15:13:26.371Z,1.75
2022-09-28T15:18:51.159Z,1.90
2022-09-28T15:24:26.643Z,1.70
2022-09-28T15:30:14.731Z,1.88
2022-09-28T15:35:36.581Z,1.42
2022-09-28T15:40:59.325Z,1.60
2022-09-28T15:46:21.288Z,1.98
2022-09-28T15:51:51.230Z,2.50
2022-09-28T15:57:33.539Z,12.35
2022-09-28T16:03:07.729Z,1.60
2022-09-28T16:08:35.431Z,2.90
2022-09-28T16:14:00.360Z,2.63
2022-09-28T16:19:25.087Z,2.95
2022-09-28T16:24:55.483Z,3.00
2022-09-28T16:30:17.357Z,2.75
2022-09-28T16:35:42.240Z,3.30
2022-09-28T16:41:04.641Z,3.33
2022-09-28T16:46:33.836Z,4.30
2022-09-28T16:51:55.718Z,5.13
2022-09-28T16:57:17.569Z,5.22
2022-09-28T17:02:46.729Z,5.10
2022-09-28T17:08:13.914Z,5.57
2022-09-28T17:18:57.352Z,6.05
2022-09-28T17:24:20.948Z,5.22
2022-09-28T17:29:43.067Z,5.70
2022-09-28T17:35:23.716Z,5.93
2022-09-28T17:40:46.701Z,6.78
2022-09-28T17:46:29.937Z,5.95
2022-09-28T17:51:51.902Z,5.95
2022-09-28T17:57:13.711Z,6.90
2022-09-28T18:02:35.560Z,7.50
2022-09-28T18:07:57.421Z,7.22
2022-09-28T18:13:19.265Z,7.28
2022-09-28T18:18:41.111Z,7.90
2022-09-28T18:24:03.028Z,7.30
2022-09-28T18:29:24.955Z,7.13
2022-09-28T18:34:46.884Z,6.68
2022-09-28T18:40:10.547Z,6.07
2022-09-28T18:45:32.414Z,6.25
2022-09-28T18:50:54.243Z,5.38
2022-09-28T18:56:17.978Z,4.90
2022-09-28T19:01:40.096Z,4.35
2022-09-28T19:07:02.001Z,4.28
2022-09-28T19:12:23.823Z,4.75
2022-09-28T19:17:45.583Z,3.97
2022-09-28T19:23:07.349Z,3.83
2022-09-28T19:28:30.047Z,3.35
2022-09-28T19:33:51.856Z,2.35
2022-09-28T19:39:14.809Z,3.30
2022-09-28T19:44:36.571Z,2.33
2022-09-28T19:49:58.331Z,2.10
2022-09-28T19:55:20.088Z,2.10
2022-09-28T20:00:41.845Z,2.60
2022-09-28T20:06:03.761Z,3.58
2022-09-28T20:11:26.006Z,3.28
2022-09-28T20:16:47.766Z,4.47
2022-09-28T20:22:09.540Z,4.43
2022-09-28T20:27:31.277Z,4.10
2022-09-28T20:32:53.101Z,8.02
2022-09-28T20:38:14.927Z,4.57
2022-09-28T20:43:38.017Z,4.60
2022-09-28T20:49:00.066Z,4.85
2022-09-28T20:54:22.043Z,5.57
2022-09-28T20:59:44.768Z,8.68
2022-09-28T21:05:06.969Z,8.30
2022-09-28T21:10:28.722Z,8.75
2022-09-28T21:15:50.963Z,8.52
2022-09-28T21:21:15.206Z,8.43
2022-09-28T21:26:37.099Z,10.68
2022-09-28T21:31:58.868Z,9.88
2022-09-28T21:37:20.658Z,10.45
2022-09-28T21:42:42.422Z,9.18
2022-09-28T21:48:04.640Z,9.77
2022-09-28T21:53:29.041Z,9.77
2022-09-28T21:58:51.194Z,10.35
2022-09-28T22:04:13.103Z,10.85
2022-09-28T22:09:34.862Z,11.07
2022-09-28T22:14:56.723Z,10.60
2022-09-28T22:20:18.716Z,11.35
2022-09-28T22:25:40.485Z,12.30
2022-09-28T22:31:02.321Z,16.13
2022-09-28T22:36:25.222Z,16.42
2022-09-28T22:41:46.983Z,16.10
2022-09-28T22:47:08.850Z,16.38
2022-09-28T22:52:30.648Z,16.75
2022-09-28T22:57:52.428Z,18.55
2022-09-28T23:03:14.366Z,23.52
2022-09-28T23:08:36.450Z,22.05
2022-09-28T23:13:59.643Z,22.90
2022-09-28T23:19:21.388Z,21.20
2022-09-28T23:24:43.146Z,20.55
2022-09-28T23:30:05.367Z,17.92
2022-09-28T23:35:27.136Z,15.75
2022-09-28T23:40:49.019Z,16.67
2022-09-28T23:46:10.859Z,14.75
2022-09-28T23:51:32.674Z,12.27
2022-09-28T23:56:54.440Z,12.13
